Guvercinlik, Turkey

7:51 PM +03 on March 26, 2017 (GMT +0300)
Guvercinlik Air Base | | Change Station

Elev 2687 ft 39.93 °N, 32.74 °E | Updated 42 minutes ago

Light Rain Showers
Light Showers Rain
61 °F
Feels Like 61 °F
N
10
Wind Variable Wind from NNW

Today
High -- | Low -- °F
--% Chance of Precip.
Yesterday
High -- | Low -- °F
Precip. -- in
Pressure 29.86 in
Visibility 6.2 miles
Clouds Few 3000 ft
Mostly Cloudy 3500 ft
Dew Point 36 °F
Humidity 39%
Rainfall 0.00 in
Snow Depth Not available.
6:42 AM 7:07 PM
Waning Crescent, 3% visible
SPECI LTAB 261609Z 33009KT 9999 -SHRA FEW030CB BKN035 16/02 Q1011 NOSIG RMK RWY06 01006KT 320V060
Pressure 29.86 in
Visibility 6.2 miles
Clouds Few 3000 ft
Mostly Cloudy 3500 ft
Dew Point 36 °F
Humidity 39%
Rainfall 0.00 in
Snow Depth Not available.
6:42 AM 7:07 PM
Waning Crescent, 3% visible
SPECI LTAB 261609Z 33009KT 9999 -SHRA FEW030CB BKN035 16/02 Q1011 NOSIG RMK RWY06 01006KT 320V060

Get Severe Weather Alerts

Thanks for signing up!

Be on the lookout for a verification email in your inbox.

You'll start receiving the daily forecast at 8 AM.

×

10-Day Weather Forecast

×

Almanac

Astronomy

Mar. 26, 2017 Rise Set
Actual Time
Civil Twilight
Nautical Twilight
Astronomical Twilight
Moon
Length of Visible Light
Length of Day
Tomorrow will be .
, % of the Moon is Illuminated

Today's Extremes

Country Highs Country Lows

Community

WunderPhotos

Upload Photos

1,962,540 photos uploaded!

WunderBlog® & News

Nearby

Air Quality

  Air Quality AQ Index Pollutant
Not available.

Snow Depth

Station Depth Elevation

Earthquake Activity

City Distance Mag. Time & Date
Minimum magnitude displayed is 2.5.

Earthquake Activity

City Distance Mag. Time & Date
Minimum magnitude displayed is 2.5.

Coastal Water Temperatures

Place Temperature

Stations

Nearby Weather Stations

Station Location Temp. Windchill Dew Point Humidity Wind Precip. Elev Updated Type